CheckWX is a tool to help pilots better visualize weather data.  It is not intended as a substitute for an official pre-flight weather briefing.

12:54:46 UTC

DTNH METAR
Enfidha - Hammamet International Airport
Enfidha, Tunisia
Current

25 mins ago

DTNH 181230Z 19011KT 150V240 CAVOK 17/04 Q1024 NOSIG
Observed
Feb-18 @ 12:30 UTC
Wind
  • 190° at 11 KTS
Visibility
10,000+ meters
Flight Rules
VFR
Cloud Levels
  • Clear skies
Temperature
17°C / 63°F
Dewpoint
C / 39°F
Humidity
42%
Altimeter
30.24" Hg
Pressure
1023.92 hPa
Previous

55 mins ago

DTNH 181200Z 18012KT 140V210 9999 FEW041 17/04 Q1024 NOSIG
Observed
Feb-18 @ 12:00 UTC
Wind
  • 180° at 12 KTS
Visibility
10,000+ meters
Flight Rules
VFR
Cloud Levels
  • Few at 4,100' AGL
Temperature
17°C / 63°F
Dewpoint
C / 39°F
Humidity
42%
Altimeter
30.24" Hg
Pressure
1023.92 hPa
Previous

1 hour ago

DTNH 181130Z 20014KT 170V230 CAVOK 16/04 Q1025 NOSIG
Observed
Feb-18 @ 11:30 UTC
Wind
  • 200° at 14 KTS
Visibility
10,000+ meters
Flight Rules
VFR
Cloud Levels
  • Clear skies
Temperature
16°C / 61°F
Dewpoint
C / 39°F
Humidity
45%
Altimeter
30.27" Hg
Pressure
1024.92 hPa